createdAt,value
2018-03-22T00:01:18.546Z,4.67
2018-03-22T00:03:46.949Z,4.93
2018-03-22T00:06:14.433Z,6.57
2018-03-22T00:08:42.256Z,6.47
2018-03-22T00:11:09.705Z,5.70
2018-03-22T00:13:37.158Z,4.40
2018-03-22T00:16:04.817Z,3.57
2018-03-22T00:18:32.286Z,11.52
2018-03-22T00:21:01.434Z,6.70
2018-03-22T00:23:28.922Z,6.90
2018-03-22T00:25:56.389Z,8.35
2018-03-22T00:28:23.855Z,8.93
2018-03-22T00:30:55.808Z,5.77
2018-03-22T00:33:23.268Z,6.70
2018-03-22T00:35:50.893Z,5.15
2018-03-22T00:38:18.364Z,8.30
2018-03-22T00:40:45.815Z,5.73
2018-03-22T00:43:13.261Z,9.47
2018-03-22T00:45:44.541Z,9.23
2018-03-22T00:48:12.021Z,9.07
2018-03-22T00:50:39.989Z,9.60
2018-03-22T00:53:07.469Z,8.63
2018-03-22T00:55:34.942Z,20.37
2018-03-22T00:58:02.376Z,8.32
2018-03-22T01:00:33.277Z,8.70
2018-03-22T01:03:00.724Z,9.00
2018-03-22T01:05:28.193Z,8.60
2018-03-22T01:07:55.661Z,7.97
2018-03-22T01:10:24.213Z,9.80
2018-03-22T01:12:51.789Z,8.43
2018-03-22T01:15:19.369Z,15.88
2018-03-22T01:17:46.820Z,9.80
2018-03-22T01:20:14.269Z,6.23
2018-03-22T01:22:41.769Z,13.03
2018-03-22T01:25:09.235Z,8.95
2018-03-22T01:27:37.619Z,9.65
2018-03-22T01:30:10.967Z,7.03
2018-03-22T01:32:38.405Z,9.80
2018-03-22T01:35:05.845Z,9.07
2018-03-22T01:37:33.317Z,9.93
2018-03-22T01:40:00.760Z,9.77
2018-03-22T01:42:28.236Z,10.13
2018-03-22T01:44:55.706Z,14.70
2018-03-22T01:47:23.153Z,10.60
2018-03-22T01:49:50.621Z,8.97
2018-03-22T01:52:18.837Z,8.30
2018-03-22T01:54:46.330Z,11.25
2018-03-22T01:57:13.782Z,9.80
2018-03-22T01:59:41.258Z,12.87
2018-03-22T02:02:08.709Z,21.12
2018-03-22T02:04:36.369Z,9.07
2018-03-22T02:07:03.818Z,12.40
2018-03-22T02:09:31.275Z,10.83
2018-03-22T02:11:58.750Z,7.90
2018-03-22T02:14:26.189Z,6.45
2018-03-22T02:16:58.573Z,11.90
2018-03-22T02:19:26.152Z,7.90
2018-03-22T02:21:53.617Z,8.77
2018-03-22T02:24:21.829Z,8.77
2018-03-22T02:26:49.417Z,11.00
2018-03-22T02:29:16.889Z,7.60
2018-03-22T02:31:44.549Z,11.27
2018-03-22T02:34:12.014Z,6.63
2018-03-22T02:36:39.458Z,8.53
2018-03-22T02:39:06.923Z,11.73
2018-03-22T02:41:34.364Z,14.90
2018-03-22T02:44:01.827Z,8.57
2018-03-22T02:46:29.268Z,9.70
2018-03-22T02:48:56.734Z,6.80
2018-03-22T02:51:24.710Z,8.10
2018-03-22T02:53:52.572Z,16.12
2018-03-22T02:56:20.062Z,15.88
2018-03-22T02:58:47.553Z,10.07
2018-03-22T03:01:15.032Z,9.40
2018-03-22T03:03:46.449Z,19.33
2018-03-22T03:06:13.891Z,7.03
2018-03-22T03:08:42.820Z,9.13
2018-03-22T03:11:10.308Z,14.37
2018-03-22T03:13:37.758Z,9.35
2018-03-22T03:16:05.208Z,9.40
2018-03-22T03:18:36.354Z,8.93
2018-03-22T03:21:03.833Z,9.85
2018-03-22T03:23:31.753Z,9.07
2018-03-22T03:25:59.190Z,9.07
2018-03-22T03:28:26.789Z,9.53
2018-03-22T03:30:54.262Z,10.13
2018-03-22T03:33:24.707Z,7.67
2018-03-22T03:35:52.141Z,9.25
2018-03-22T03:38:19.620Z,9.73
2018-03-22T03:40:47.101Z,6.43
2018-03-22T03:43:15.460Z,9.40
2018-03-22T03:45:42.934Z,12.53
2018-03-22T03:48:14.450Z,8.60
2018-03-22T03:50:41.950Z,7.83
2018-03-22T03:53:09.428Z,8.53
2018-03-22T03:55:36.905Z,17.47
2018-03-22T03:58:05.284Z,8.80
2018-03-22T04:00:32.728Z,13.80
2018-03-22T04:03:00.220Z,6.20
2018-03-22T04:05:28.040Z,6.80
2018-03-22T04:07:55.477Z,10.40
2018-03-22T04:10:22.963Z,8.83
2018-03-22T04:12:50.429Z,8.13
2018-03-22T04:15:18.816Z,7.33
2018-03-22T04:17:46.260Z,10.43
2018-03-22T04:20:18.148Z,8.50
2018-03-22T04:22:45.603Z,8.02
2018-03-22T04:25:13.792Z,8.83
2018-03-22T04:27:41.228Z,7.25
2018-03-22T04:30:08.707Z,11.60
2018-03-22T04:32:36.159Z,12.93
2018-03-22T04:35:03.669Z,6.93
2018-03-22T04:37:31.141Z,7.20
2018-03-22T04:39:58.587Z,10.47
2018-03-22T04:42:26.066Z,12.93
2018-03-22T04:44:53.521Z,10.37
2018-03-22T04:47:20.976Z,19.03
2018-03-22T04:49:48.450Z,12.53
2018-03-22T04:52:16.446Z,12.45
2018-03-22T04:54:44.994Z,14.93
2018-03-22T04:57:12.455Z,17.77
2018-03-22T04:59:39.925Z,9.32
2018-03-22T05:02:07.397Z,16.75
2018-03-22T05:04:40.377Z,13.55
2018-03-22T05:07:07.813Z,11.27
2018-03-22T05:09:35.285Z,12.23
2018-03-22T05:12:02.729Z,19.17
2018-03-22T05:14:30.828Z,11.88
2018-03-22T05:16:58.281Z,10.90
2018-03-22T05:19:25.753Z,8.63
2018-03-22T05:21:56.957Z,11.30
2018-03-22T05:24:24.406Z,12.20
2018-03-22T05:26:51.885Z,11.90
2018-03-22T05:29:20.072Z,10.53
2018-03-22T05:31:48.295Z,10.53
2018-03-22T05:34:15.781Z,9.15
2018-03-22T05:36:43.237Z,14.38
2018-03-22T05:39:10.733Z,9.13
2018-03-22T05:41:38.184Z,8.53
2018-03-22T05:44:06.417Z,12.60
2018-03-22T05:46:33.916Z,9.20
2018-03-22T05:49:01.412Z,14.48
2018-03-22T05:51:29.101Z,15.87
2018-03-22T05:53:56.598Z,11.90
2018-03-22T05:56:24.060Z,10.73
2018-03-22T05:58:51.512Z,10.97
2018-03-22T06:01:19.005Z,11.30
2018-03-22T06:03:46.697Z,9.53
2018-03-22T06:06:14.169Z,8.27
2018-03-22T06:08:42.445Z,13.07
2018-03-22T06:11:09.981Z,14.83
2018-03-22T06:13:37.457Z,7.60
2018-03-22T06:16:04.910Z,9.85
2018-03-22T06:18:32.373Z,9.75
2018-03-22T06:20:59.988Z,17.43
2018-03-22T06:23:27.450Z,10.17
2018-03-22T06:25:55.853Z,10.87
2018-03-22T06:28:23.303Z,10.60
2018-03-22T06:30:50.768Z,11.33
2018-03-22T06:33:18.229Z,13.13
2018-03-22T06:35:45.780Z,18.00
2018-03-22T06:38:13.218Z,10.80
2018-03-22T06:40:40.657Z,10.30
2018-03-22T06:43:08.135Z,15.43
2018-03-22T06:45:35.598Z,12.70
2018-03-22T06:48:03.084Z,12.63
2018-03-22T06:50:30.947Z,12.63
2018-03-22T06:52:59.122Z,14.95
2018-03-22T06:55:26.590Z,8.38
2018-03-22T06:57:54.092Z,17.27
2018-03-22T07:00:21.549Z,12.25
2018-03-22T07:02:49.008Z,24.23
2018-03-22T07:05:16.485Z,9.60
2018-03-22T07:07:43.949Z,20.80
2018-03-22T07:10:11.613Z,12.13
2018-03-22T07:12:39.101Z,13.50
2018-03-22T07:15:07.915Z,15.20
2018-03-22T07:17:35.393Z,9.33
2018-03-22T07:20:02.886Z,8.77
2018-03-22T07:22:30.335Z,18.03
2018-03-22T07:24:57.807Z,14.03
2018-03-22T07:27:26.193Z,6.83
2018-03-22T07:29:54.403Z,14.80
2018-03-22T07:32:21.866Z,7.60
2018-03-22T07:34:49.317Z,14.60
2018-03-22T07:37:20.497Z,9.67
2018-03-22T07:39:48.021Z,11.07
2018-03-22T07:42:15.721Z,12.83
2018-03-22T07:44:49.070Z,8.40
2018-03-22T07:47:16.483Z,9.30
2018-03-22T07:49:44.552Z,13.40
2018-03-22T07:52:12.169Z,9.70
2018-03-22T07:54:39.609Z,10.33
2018-03-22T07:57:07.081Z,7.65
2018-03-22T07:59:35.461Z,15.90
2018-03-22T08:02:02.922Z,10.90
2018-03-22T08:04:30.718Z,11.43
2018-03-22T08:06:59.201Z,8.20
2018-03-22T08:09:26.662Z,10.82
2018-03-22T08:11:54.881Z,17.85
2018-03-22T08:14:22.377Z,9.63
2018-03-22T08:16:49.918Z,8.33
2018-03-22T08:19:17.388Z,14.98
2018-03-22T08:21:45.028Z,7.50
2018-03-22T08:24:12.485Z,7.55
2018-03-22T08:26:39.954Z,10.53
2018-03-22T08:29:07.763Z,9.27
2018-03-22T08:31:35.239Z,9.68
2018-03-22T08:34:03.149Z,11.57
2018-03-22T08:36:30.614Z,5.77
2018-03-22T08:38:58.061Z,11.10
2018-03-22T08:41:25.595Z,6.22
2018-03-22T08:43:53.076Z,9.57
2018-03-22T08:46:20.648Z,7.83
2018-03-22T08:48:48.101Z,15.40
2018-03-22T08:51:17.239Z,7.13
2018-03-22T08:53:44.700Z,14.80
2018-03-22T08:56:12.905Z,9.50
2018-03-22T08:58:40.388Z,8.27
2018-03-22T09:01:07.839Z,10.75
2018-03-22T09:03:37.045Z,9.44
2018-03-22T09:06:04.623Z,11.93
2018-03-22T09:08:32.072Z,8.80
2018-03-22T09:10:59.545Z,6.73
2018-03-22T09:13:26.989Z,7.80
2018-03-22T09:15:55.370Z,11.90
2018-03-22T09:18:23.021Z,9.10
2018-03-22T09:20:50.476Z,6.72
2018-03-22T09:23:17.917Z,8.10
2018-03-22T09:25:48.882Z,6.45
2018-03-22T09:28:16.317Z,6.67
2018-03-22T09:30:45.642Z,8.73
2018-03-22T09:33:13.085Z,6.10
2018-03-22T09:35:40.658Z,8.00
2018-03-22T09:38:08.324Z,7.90
2018-03-22T09:40:39.362Z,8.75
2018-03-22T09:43:06.789Z,9.40
2018-03-22T09:45:34.285Z,6.78
2018-03-22T09:48:02.515Z,8.40
2018-03-22T09:50:29.945Z,5.75
2018-03-22T09:52:57.421Z,13.43
2018-03-22T09:55:24.895Z,7.80
2018-03-22T09:57:53.101Z,7.15
2018-03-22T10:00:21.197Z,14.27
2018-03-22T10:02:48.677Z,8.13
2018-03-22T10:05:16.856Z,6.25
2018-03-22T10:07:44.325Z,7.87
2018-03-22T10:10:12.677Z,6.67
2018-03-22T10:12:40.282Z,7.80
2018-03-22T10:15:07.753Z,6.83
2018-03-22T10:17:35.214Z,6.37
2018-03-22T10:20:02.657Z,4.32
2018-03-22T10:22:30.240Z,9.67
2018-03-22T10:24:57.682Z,4.50
2018-03-22T10:27:27.569Z,4.62
2018-03-22T10:29:55.012Z,4.17
2018-03-22T10:32:22.473Z,6.03
2018-03-22T10:34:49.912Z,12.63
2018-03-22T10:37:17.395Z,13.13
2018-03-22T10:39:45.809Z,5.93
2018-03-22T10:42:17.858Z,7.70
2018-03-22T10:44:46.227Z,5.93
2018-03-22T10:47:13.661Z,8.10
2018-03-22T10:49:41.145Z,8.50
2018-03-22T10:52:08.601Z,7.85
2018-03-22T10:54:36.073Z,6.20
2018-03-22T10:57:03.512Z,5.97
2018-03-22T10:59:31.864Z,5.60
2018-03-22T11:02:00.494Z,4.83
2018-03-22T11:04:28.010Z,9.03
2018-03-22T11:06:55.479Z,7.97
2018-03-22T11:09:22.964Z,9.17
2018-03-22T11:11:50.583Z,5.37
2018-03-22T11:14:19.862Z,7.80
2018-03-22T11:16:47.306Z,6.47
2018-03-22T11:19:15.528Z,8.77
2018-03-22T11:21:43.588Z,8.20
2018-03-22T11:24:11.021Z,11.85
2018-03-22T11:26:43.159Z,11.30
2018-03-22T11:29:10.593Z,9.38
2018-03-22T11:31:39.545Z,9.10
2018-03-22T11:34:06.995Z,8.43
2018-03-22T11:36:34.456Z,5.73
2018-03-22T11:39:01.970Z,7.15
2018-03-22T11:41:29.417Z,7.33
2018-03-22T11:43:56.921Z,11.17
2018-03-22T11:46:24.633Z,10.20
2018-03-22T11:48:52.436Z,9.27
2018-03-22T11:51:20.171Z,11.83
2018-03-22T11:53:47.692Z,12.73
2018-03-22T11:56:18.977Z,10.43
2018-03-22T11:58:47.393Z,10.07
2018-03-22T12:01:14.839Z,15.50
2018-03-22T12:03:42.273Z,11.17
2018-03-22T12:06:09.764Z,8.63
2018-03-22T12:08:37.970Z,16.30
2018-03-22T12:11:06.332Z,11.85
2018-03-22T12:13:33.801Z,14.60
2018-03-22T12:16:01.261Z,15.43
2018-03-22T12:18:28.715Z,16.60
2018-03-22T12:20:56.149Z,18.30
2018-03-22T12:23:23.811Z,16.25
2018-03-22T12:25:51.258Z,18.37
2018-03-22T12:28:18.718Z,18.60
2018-03-22T12:30:46.156Z,14.45
2018-03-22T12:33:13.701Z,17.70
2018-03-22T12:35:41.185Z,20.08
2018-03-22T12:38:09.110Z,20.37
2018-03-22T12:40:36.550Z,18.83
2018-03-22T12:43:04.989Z,15.18
2018-03-22T12:45:32.512Z,22.45
2018-03-22T12:47:59.968Z,26.15
2018-03-22T12:50:27.612Z,17.40
2018-03-22T12:52:55.036Z,17.80
2018-03-22T12:55:23.238Z,16.17
2018-03-22T12:57:50.897Z,14.40
2018-03-22T13:00:18.353Z,22.57
2018-03-22T13:02:45.826Z,20.83
2018-03-22T13:05:13.306Z,23.77
2018-03-22T13:07:40.748Z,20.57
2018-03-22T13:10:08.219Z,21.63
2018-03-22T13:12:40.731Z,18.83
2018-03-22T13:15:08.132Z,19.45
2018-03-22T13:17:35.621Z,15.50
2018-03-22T13:20:03.082Z,21.33
2018-03-22T13:22:31.480Z,16.23
2018-03-22T13:24:58.962Z,16.97
2018-03-22T13:27:26.423Z,21.47
2018-03-22T13:29:53.905Z,11.13
2018-03-22T13:32:21.337Z,19.00
2018-03-22T13:34:48.820Z,13.03
2018-03-22T13:37:16.277Z,16.07
2018-03-22T13:39:43.846Z,13.40
2018-03-22T13:42:11.344Z,13.90
2018-03-22T13:44:38.795Z,13.35
2018-03-22T13:47:06.849Z,16.65
2018-03-22T13:49:34.557Z,14.73
2018-03-22T13:52:02.180Z,16.40
2018-03-22T13:54:30.392Z,14.40
2018-03-22T13:56:59.685Z,15.13
2018-03-22T13:59:26.993Z,16.93
2018-03-22T14:01:54.625Z,15.88
2018-03-22T14:04:22.111Z,20.10
2018-03-22T14:06:49.557Z,21.37
2018-03-22T14:09:17.018Z,20.57
2018-03-22T14:11:45.302Z,19.55
2018-03-22T14:14:12.972Z,19.76
2018-03-22T14:16:40.536Z,20.90
2018-03-22T14:19:08.785Z,21.30
2018-03-22T14:21:36.249Z,23.40
2018-03-22T14:24:03.710Z,24.80
2018-03-22T14:26:31.943Z,24.60
2018-03-22T14:29:03.844Z,23.55
2018-03-22T14:31:32.244Z,26.05
2018-03-22T14:33:59.762Z,23.70
2018-03-22T14:36:27.428Z,30.80
2018-03-22T14:38:54.917Z,25.60
2018-03-22T14:41:22.360Z,24.17
2018-03-22T14:43:53.495Z,30.58
2018-03-22T14:46:21.888Z,28.07
2018-03-22T14:48:49.361Z,28.17
2018-03-22T14:51:16.812Z,33.50
2018-03-22T14:53:44.281Z,39.73
2018-03-22T14:56:11.728Z,37.00
2018-03-22T14:58:39.227Z,27.30
2018-03-22T15:01:06.677Z,33.57
2018-03-22T15:03:34.112Z,27.73
2018-03-22T15:06:01.617Z,34.93
2018-03-22T15:08:29.065Z,37.88
2018-03-22T15:10:56.649Z,29.33
2018-03-22T15:13:25.789Z,31.90
2018-03-22T15:15:53.234Z,38.40
2018-03-22T15:18:20.965Z,37.50
2018-03-22T15:20:50.109Z,40.28
2018-03-22T15:23:17.549Z,32.97
2018-03-22T15:25:45.801Z,39.97
2018-03-22T15:28:14.130Z,29.03
2018-03-22T15:30:41.548Z,30.40
2018-03-22T15:33:12.153Z,31.93
2018-03-22T15:35:39.628Z,29.60
2018-03-22T15:38:08.301Z,50.40
2018-03-22T15:40:35.962Z,47.67
2018-03-22T15:43:03.592Z,41.97
2018-03-22T15:45:31.041Z,34.57
2018-03-22T15:47:58.497Z,36.73
2018-03-22T15:50:25.956Z,33.47
2018-03-22T15:52:53.425Z,36.23
2018-03-22T15:55:20.933Z,49.63
2018-03-22T15:57:49.177Z,39.10
2018-03-22T16:00:20.080Z,25.10
2018-03-22T16:02:47.700Z,28.85
2018-03-22T16:05:15.202Z,33.13
2018-03-22T16:07:42.695Z,30.73
2018-03-22T16:10:10.149Z,25.70
2018-03-22T16:12:37.639Z,21.30
2018-03-22T16:15:05.848Z,22.77
2018-03-22T16:17:37.064Z,23.53
2018-03-22T16:20:05.368Z,33.70
2018-03-22T16:22:32.810Z,32.10
2018-03-22T16:25:01.080Z,24.08
2018-03-22T16:27:30.011Z,27.20
2018-03-22T16:29:57.460Z,29.80
2018-03-22T16:32:28.324Z,31.50
2018-03-22T16:34:55.793Z,34.13
2018-03-22T16:37:24.993Z,26.63
2018-03-22T16:39:52.438Z,25.95
2018-03-22T16:42:19.962Z,33.43
2018-03-22T16:44:47.441Z,28.45
2018-03-22T16:47:14.884Z,35.13
2018-03-22T16:49:42.357Z,32.80
2018-03-22T16:52:10.811Z,32.17
2018-03-22T16:54:38.245Z,30.80
2018-03-22T16:57:05.868Z,27.87
2018-03-22T16:59:33.350Z,27.80
2018-03-22T17:02:01.836Z,32.75
2018-03-22T17:04:30.163Z,36.45
2018-03-22T17:06:57.605Z,36.77
2018-03-22T17:09:25.117Z,26.97
2018-03-22T17:11:52.577Z,37.47
2018-03-22T17:14:20.818Z,37.03
2018-03-22T17:16:49.187Z,47.22
2018-03-22T17:19:16.687Z,30.30
2018-03-22T17:21:44.156Z,36.70
2018-03-22T17:24:11.612Z,30.25
2018-03-22T17:26:39.086Z,34.45
2018-03-22T17:29:06.537Z,36.80
2018-03-22T17:31:34.061Z,35.77
2018-03-22T17:34:03.924Z,30.30
2018-03-22T17:36:31.381Z,33.90
2018-03-22T17:38:58.877Z,34.10
2018-03-22T17:41:26.349Z,30.65
2018-03-22T17:43:54.964Z,33.28
2018-03-22T17:46:22.791Z,30.60
2018-03-22T17:48:50.413Z,28.12
2018-03-22T17:51:17.882Z,27.73
2018-03-22T17:53:45.363Z,31.80
2018-03-22T17:56:13.578Z,35.85
2018-03-22T17:58:41.021Z,35.50
2018-03-22T18:01:08.508Z,39.47
2018-03-22T18:03:36.212Z,30.40
2018-03-22T18:06:06.129Z,32.73
2018-03-22T18:08:33.596Z,35.08
2018-03-22T18:11:01.029Z,28.27
2018-03-22T18:13:28.515Z,33.77
2018-03-22T18:15:56.074Z,26.47
2018-03-22T18:18:23.524Z,33.00
2018-03-22T18:20:50.965Z,39.47
2018-03-22T18:23:18.450Z,32.70
2018-03-22T18:25:46.687Z,41.13
2018-03-22T18:28:14.146Z,33.40
2018-03-22T18:30:41.596Z,29.57
2018-03-22T18:33:09.055Z,33.80
2018-03-22T18:35:37.145Z,30.17
2018-03-22T18:38:05.141Z,31.12
2018-03-22T18:40:34.289Z,32.17
2018-03-22T18:43:01.989Z,26.97
2018-03-22T18:45:29.452Z,34.73
2018-03-22T18:48:00.175Z,33.00
2018-03-22T18:50:29.337Z,32.78
2018-03-22T18:52:56.829Z,28.65
2018-03-22T18:55:24.290Z,30.83
2018-03-22T18:57:51.745Z,29.67
2018-03-22T19:00:19.217Z,31.07
2018-03-22T19:02:47.481Z,28.30
2018-03-22T19:05:14.965Z,26.52
2018-03-22T19:07:42.466Z,29.40
2018-03-22T19:10:09.961Z,29.00
2018-03-22T19:12:38.521Z,28.65
2018-03-22T19:15:05.998Z,29.30
2018-03-22T19:17:33.516Z,31.17
2018-03-22T19:20:02.429Z,21.77
2018-03-22T19:22:30.816Z,29.40
2018-03-22T19:24:59.826Z,26.20
2018-03-22T19:27:27.444Z,26.50
2018-03-22T19:29:54.890Z,24.52
2018-03-22T19:32:22.361Z,28.03
2018-03-22T19:34:53.116Z,27.80
2018-03-22T19:37:21.060Z,35.65
2018-03-22T19:39:48.534Z,36.93
2018-03-22T19:42:15.977Z,34.73
2018-03-22T19:44:43.453Z,29.57
2018-03-22T19:47:10.916Z,28.92
2018-03-22T19:49:45.421Z,24.08
2018-03-22T19:52:13.017Z,29.53
2018-03-22T19:54:41.883Z,30.37
2018-03-22T19:57:09.520Z,27.42
2018-03-22T19:59:36.965Z,39.83
2018-03-22T20:02:06.189Z,30.45
2018-03-22T20:04:37.504Z,30.73
2018-03-22T20:07:05.805Z,31.60
2018-03-22T20:09:33.406Z,25.07
2018-03-22T20:12:00.873Z,33.90
2018-03-22T20:14:28.332Z,33.53
2018-03-22T20:16:55.788Z,28.40
2018-03-22T20:19:26.900Z,38.33
2018-03-22T20:21:55.491Z,26.80
2018-03-22T20:24:23.045Z,28.93
2018-03-22T20:26:50.514Z,24.90
2018-03-22T20:29:17.985Z,30.70
2018-03-22T20:31:45.437Z,28.60
2018-03-22T20:34:12.936Z,32.70
2018-03-22T20:36:40.385Z,33.50
2018-03-22T20:39:08.120Z,33.85
2018-03-22T20:41:36.346Z,28.70
2018-03-22T20:44:04.741Z,28.70
2018-03-22T20:46:32.197Z,34.27
2018-03-22T20:48:59.703Z,30.15
2018-03-22T20:51:28.101Z,32.42
2018-03-22T20:53:55.582Z,27.73
2018-03-22T20:56:23.061Z,32.70
2018-03-22T20:58:50.567Z,28.07
2018-03-22T21:01:17.973Z,31.20
2018-03-22T21:03:45.729Z,24.33
2018-03-22T21:06:13.205Z,26.40
2018-03-22T21:08:40.943Z,23.23
2018-03-22T21:11:08.405Z,29.23
2018-03-22T21:13:36.484Z,30.77
2018-03-22T21:16:03.953Z,27.90
2018-03-22T21:18:31.601Z,33.43
2018-03-22T21:21:06.126Z,26.50
2018-03-22T21:23:33.571Z,32.63
2018-03-22T21:26:02.030Z,32.38
2018-03-22T21:28:29.510Z,29.97
2018-03-22T21:30:57.290Z,30.97
2018-03-22T21:33:24.753Z,31.80
2018-03-22T21:35:52.193Z,28.50
2018-03-22T21:38:19.662Z,33.10
2018-03-22T21:40:47.148Z,31.47
2018-03-22T21:43:15.397Z,26.60
2018-03-22T21:45:42.846Z,26.20
2018-03-22T21:48:10.319Z,30.53
2018-03-22T21:50:49.648Z,29.97
2018-03-22T21:53:17.107Z,27.73
2018-03-22T21:55:45.336Z,36.73
2018-03-22T21:58:12.830Z,31.10
2018-03-22T22:00:40.304Z,28.27
2018-03-22T22:03:07.744Z,31.80
2018-03-22T22:05:35.866Z,31.58
2018-03-22T22:08:03.306Z,30.47
2018-03-22T22:10:30.773Z,33.40
2018-03-22T22:12:58.251Z,31.13
2018-03-22T22:15:25.695Z,34.47
2018-03-22T22:17:53.664Z,35.43
2018-03-22T22:20:21.884Z,32.07
2018-03-22T22:22:52.609Z,32.28
2018-03-22T22:25:20.069Z,30.73
2018-03-22T22:27:47.645Z,33.43
2018-03-22T22:30:16.155Z,28.53
2018-03-22T22:32:45.533Z,35.50
2018-03-22T22:35:12.965Z,34.35
2018-03-22T22:37:43.506Z,32.77
2018-03-22T22:40:10.964Z,36.43
2018-03-22T22:42:39.390Z,38.33
2018-03-22T22:45:06.849Z,30.58
2018-03-22T22:47:34.441Z,30.30
2018-03-22T22:50:01.885Z,36.05
2018-03-22T22:52:29.381Z,31.85
2018-03-22T22:54:56.821Z,32.97
2018-03-22T22:57:25.342Z,30.40
2018-03-22T22:59:54.489Z,33.08
2018-03-22T23:02:21.937Z,33.60
2018-03-22T23:04:49.420Z,32.40
2018-03-22T23:07:21.577Z,34.46
2018-03-22T23:09:55.154Z,34.17
2018-03-22T23:12:22.663Z,32.03
2018-03-22T23:14:50.135Z,28.50
2018-03-22T23:17:17.585Z,29.25
2018-03-22T23:19:45.026Z,32.67
2018-03-22T23:22:13.422Z,32.17
2018-03-22T23:24:41.114Z,32.47
2018-03-22T23:27:08.553Z,31.73
2018-03-22T23:29:36.005Z,30.80
2018-03-22T23:32:03.477Z,30.75
2018-03-22T23:34:30.937Z,31.23
2018-03-22T23:36:58.416Z,35.20
2018-03-22T23:39:25.853Z,29.35
2018-03-22T23:41:53.303Z,32.45
2018-03-22T23:44:22.484Z,30.40
2018-03-22T23:46:50.701Z,32.53
2018-03-22T23:49:18.144Z,27.40
2018-03-22T23:51:47.499Z,33.40
2018-03-22T23:54:14.934Z,32.95
2018-03-22T23:56:42.401Z,34.07
2018-03-22T23:59:10.768Z,30.13
